Time;durP1;ratioP1;P1;durP2;ratioP2;P2;SDS_P1;SDS_P2;PMS_P1;PMS_P2;Temp;Humidity;BMP_temperature;BMP_pressure;BME280_temperature;BME280_humidity;BME280_pressure;Samples;Min_cycle;Max_cycle;Signal;HPM_P1;HPM_P2
2020/12/06 00:00:07;;;;;;;36.28;19.08;;;;;;;;;;5086729;28;20545;-59
2020/12/06 00:02:33;;;;;;;36.67;18.15;;;;;;;;;;5062332;28;20391;-59
2020/12/06 00:04:59;;;;;;;29.02;15.73;;;;;;;;;;5073916;28;20016;-59
2020/12/06 00:07:25;;;;;;;32.72;16.58;;;;;;;;;;5061735;28;20066;-59
2020/12/06 00:09:51;;;;;;;34.40;17.38;;;;;;;;;;5083433;28;20407;-59
2020/12/06 00:12:17;;;;;;;33.03;16.25;;;;;;;;;;5073076;28;20028;-59
2020/12/06 00:14:43;;;;;;;31.75;17.58;;;;;;;;;;5079771;28;20073;-58
2020/12/06 00:17:09;;;;;;;36.60;17.35;;;;;;;;;;5089149;28;20039;-59
2020/12/06 00:19:35;;;;;;;35.47;17.90;;;;;;;;;;5083196;28;20070;-59
2020/12/06 00:22:01;;;;;;;39.10;19.42;;;;;;;;;;5065411;28;20028;-59
2020/12/06 00:24:27;;;;;;;30.27;16.38;;;;;;;;;;5078911;28;20614;-58
2020/12/06 00:26:56;;;;;;;33.28;18.55;;;;;;;;;;5076727;28;20039;-58
2020/12/06 00:29:22;;;;;;;34.42;17.27;;;;;;;;;;5063869;28;20048;-59
2020/12/06 00:31:49;;;;;;;33.45;16.98;;;;;;;;;;5076710;28;20032;-58
2020/12/06 00:34:15;;;;;;;36.25;18.80;;;;;;;;;;5066097;28;20040;-59
2020/12/06 00:36:40;;;;;;;31.42;17.05;;;;;;;;;;5073300;28;20020;-59
2020/12/06 00:39:06;;;;;;;32.47;17.85;;;;;;;;;;5085275;28;20028;-59
2020/12/06 00:41:32;;;;;;;32.72;17.63;;;;;;;;;;5086001;28;20024;-59
2020/12/06 00:43:58;;;;;;;35.00;18.35;;;;;;;;;;5062597;28;20032;-59
2020/12/06 00:46:24;;;;;;;32.33;17.10;;;;;;;;;;5050374;28;20074;-59
2020/12/06 00:48:50;;;;;;;32.67;17.38;;;;;;;;;;5080853;28;20024;-59
2020/12/06 00:51:16;;;;;;;34.72;16.45;;;;;;;;;;5066647;28;20111;-59
2020/12/06 00:53:43;;;;;;;29.25;17.63;;;;;;;;;;5072979;28;20588;-58
2020/12/06 00:56:18;;;;;;;31.98;17.35;;;;;;;;;;5056224;28;20024;-59
2020/12/06 00:58:45;;;;;;;35.78;19.40;;;;;;;;;;5083418;28;20032;-58
2020/12/06 01:01:11;;;;;;;32.15;16.67;;;;;;;;;;5080876;28;20480;-59
2020/12/06 01:03:38;;;;;;;32.08;18.27;;;;;;;;;;5081740;28;20120;-59
2020/12/06 01:06:04;;;;;;;31.48;17.17;;;;;;;;;;5069811;28;20028;-59
2020/12/06 01:08:30;;;;;;;38.13;18.08;;;;;;;;;;5084301;28;20409;-59
2020/12/06 01:10:56;;;;;;;32.58;17.67;;;;;;;;;;5082127;28;20039;-59
2020/12/06 01:13:22;;;;;;;36.47;19.00;;;;;;;;;;5077931;28;20035;-59
2020/12/06 01:15:48;;;;;;;34.55;18.23;;;;;;;;;;5072586;28;20028;-60
2020/12/06 01:18:14;;;;;;;41.08;19.70;;;;;;;;;;5070830;28;20078;-58
2020/12/06 01:20:40;;;;;;;40.22;19.60;;;;;;;;;;5079902;28;20090;-58
2020/12/06 01:23:06;;;;;;;35.22;18.70;;;;;;;;;;5083916;28;20047;-59
2020/12/06 01:25:32;;;;;;;37.65;20.70;;;;;;;;;;5084011;28;20028;-58
2020/12/06 01:27:58;;;;;;;37.40;20.10;;;;;;;;;;5071549;28;20052;-59
2020/12/06 01:30:24;;;;;;;36.63;20.17;;;;;;;;;;5068555;28;20036;-59
2020/12/06 01:32:49;;;;;;;41.75;20.17;;;;;;;;;;5075515;28;20024;-59
2020/12/06 01:35:15;;;;;;;39.15;21.52;;;;;;;;;;5061570;28;20037;-59
2020/12/06 01:37:41;;;;;;;42.13;20.60;;;;;;;;;;5084566;28;20085;-59
2020/12/06 01:40:07;;;;;;;39.22;21.10;;;;;;;;;;5083768;28;20035;-59
2020/12/06 01:42:33;;;;;;;43.22;22.15;;;;;;;;;;5077599;28;20035;-59
2020/12/06 01:45:00;;;;;;;39.50;21.02;;;;;;;;;;5083729;28;20025;-59
2020/12/06 01:47:29;;;;;;;40.45;21.33;;;;;;;;;;5070571;28;20036;-59
2020/12/06 01:49:55;;;;;;;41.67;22.40;;;;;;;;;;5085373;28;20036;-59
2020/12/06 01:52:22;;;;;;;39.05;20.08;;;;;;;;;;5085660;28;20030;-58
2020/12/06 01:54:49;;;;;;;37.35;20.88;;;;;;;;;;5083126;28;20024;-58
2020/12/06 01:57:15;;;;;;;42.88;21.90;;;;;;;;;;5068307;28;20123;-58
2020/12/06 01:59:41;;;;;;;45.38;21.50;;;;;;;;;;5085197;28;20115;-59
2020/12/06 02:02:07;;;;;;;44.13;21.90;;;;;;;;;;5087399;28;20046;-59
2020/12/06 02:04:33;;;;;;;39.67;21.33;;;;;;;;;;5073338;28;20031;-59
2020/12/06 02:07:00;;;;;;;34.22;20.05;;;;;;;;;;5073806;28;20028;-59
2020/12/06 02:09:27;;;;;;;36.28;20.58;;;;;;;;;;5067499;28;20099;-58
2020/12/06 02:11:53;;;;;;;35.17;20.25;;;;;;;;;;5088755;28;20492;-59
2020/12/06 02:14:20;;;;;;;38.78;20.00;;;;;;;;;;5073960;28;20063;-59
2020/12/06 02:16:46;;;;;;;39.17;20.77;;;;;;;;;;5084799;28;20067;-59
2020/12/06 02:19:13;;;;;;;38.05;21.10;;;;;;;;;;5089491;28;20493;-59
2020/12/06 02:21:39;;;;;;;39.20;21.23;;;;;;;;;;5086204;28;20558;-59
2020/12/06 02:24:06;;;;;;;33.85;19.35;;;;;;;;;;5081313;28;20119;-58
2020/12/06 02:26:39;;;;;;;41.72;22.13;;;;;;;;;;5070416;28;20028;-59
2020/12/06 02:29:06;;;;;;;41.15;20.73;;;;;;;;;;5083297;28;20131;-59
2020/12/06 02:31:32;;;;;;;40.42;20.08;;;;;;;;;;5074001;28;20028;-58
2020/12/06 02:33:58;;;;;;;40.22;21.00;;;;;;;;;;5083483;28;20017;-58
2020/12/06 02:36:24;;;;;;;39.97;20.52;;;;;;;;;;5076105;28;20036;-59
2020/12/06 02:38:50;;;;;;;44.40;21.10;;;;;;;;;;5068487;28;20063;-59
2020/12/06 02:41:16;;;;;;;38.53;20.88;;;;;;;;;;5077283;28;20442;-58
2020/12/06 02:43:42;;;;;;;42.60;20.58;;;;;;;;;;5081992;28;20033;-58
2020/12/06 02:46:08;;;;;;;37.75;20.77;;;;;;;;;;5076233;28;20077;-58
2020/12/06 02:48:34;;;;;;;39.00;19.70;;;;;;;;;;5073384;28;20025;-59
2020/12/06 02:51:00;;;;;;;49.05;23.02;;;;;;;;;;5082019;28;20604;-59
2020/12/06 02:53:26;;;;;;;40.55;22.05;;;;;;;;;;5080384;28;20070;-59
2020/12/06 02:55:52;;;;;;;39.53;21.08;;;;;;;;;;5075007;28;20024;-59
2020/12/06 02:58:18;;;;;;;44.03;22.23;;;;;;;;;;5078853;28;20028;-59
2020/12/06 03:00:44;;;;;;;47.38;23.50;;;;;;;;;;5078434;28;20045;-59
2020/12/06 03:03:10;;;;;;;44.92;22.13;;;;;;;;;;5078192;28;20024;-59
2020/12/06 03:05:36;;;;;;;43.80;23.35;;;;;;;;;;5089481;28;20035;-59
2020/12/06 03:08:02;;;;;;;46.95;23.58;;;;;;;;;;5089092;28;20078;-58
2020/12/06 03:10:28;;;;;;;44.50;22.15;;;;;;;;;;5084152;28;20056;-59
2020/12/06 03:12:54;;;;;;;50.88;23.70;;;;;;;;;;5086186;28;20375;-59
2020/12/06 03:15:20;;;;;;;48.20;23.77;;;;;;;;;;5079376;28;20020;-58
2020/12/06 03:17:46;;;;;;;46.28;22.70;;;;;;;;;;5081286;28;20028;-59
2020/12/06 03:20:12;;;;;;;40.47;22.00;;;;;;;;;;5077993;28;20024;-59
2020/12/06 03:22:37;;;;;;;48.05;22.50;;;;;;;;;;5079909;28;20077;-58
2020/12/06 03:25:03;;;;;;;48.05;22.35;;;;;;;;;;5082005;28;20028;-59
2020/12/06 03:27:29;;;;;;;45.17;21.88;;;;;;;;;;5090846;28;20027;-59
2020/12/06 03:29:56;;;;;;;47.70;22.35;;;;;;;;;;5072307;28;20043;-58
2020/12/06 03:32:23;;;;;;;44.97;22.65;;;;;;;;;;5078493;28;20495;-58
2020/12/06 03:34:49;;;;;;;41.10;21.77;;;;;;;;;;5075271;28;20020;-59
2020/12/06 03:37:15;;;;;;;42.40;22.52;;;;;;;;;;5079610;28;20040;-59
2020/12/06 03:39:41;;;;;;;45.13;21.58;;;;;;;;;;5087232;28;20113;-59
2020/12/06 03:42:07;;;;;;;43.08;21.45;;;;;;;;;;5079436;28;20024;-59
2020/12/06 03:44:33;;;;;;;43.33;21.48;;;;;;;;;;5086227;28;20029;-59
2020/12/06 03:46:59;;;;;;;41.40;20.30;;;;;;;;;;5078698;28;20028;-59
2020/12/06 03:49:25;;;;;;;36.58;20.27;;;;;;;;;;5086058;28;20031;-59
2020/12/06 03:51:51;;;;;;;35.03;19.45;;;;;;;;;;5051081;28;20615;-58
2020/12/06 03:54:17;;;;;;;36.30;19.42;;;;;;;;;;5071399;28;20495;-59
2020/12/06 03:56:43;;;;;;;39.15;20.88;;;;;;;;;;5080437;28;20432;-59
2020/12/06 03:59:09;;;;;;;36.60;18.95;;;;;;;;;;5088347;28;20451;-59
2020/12/06 04:01:35;;;;;;;37.33;18.65;;;;;;;;;;5068367;28;20036;-59
2020/12/06 04:04:01;;;;;;;36.20;19.17;;;;;;;;;;5078666;28;20020;-59
2020/12/06 04:06:27;;;;;;;37.20;19.73;;;;;;;;;;5075297;28;20028;-59
2020/12/06 04:08:53;;;;;;;35.58;17.98;;;;;;;;;;5079420;28;20028;-59
2020/12/06 04:11:20;;;;;;;35.67;18.13;;;;;;;;;;5080557;28;20031;-59
2020/12/06 04:13:46;;;;;;;36.42;17.95;;;;;;;;;;5075504;28;20054;-59
2020/12/06 04:16:12;;;;;;;36.63;19.33;;;;;;;;;;5079518;28;20026;-59
2020/12/06 04:18:38;;;;;;;37.58;18.23;;;;;;;;;;5082715;28;20356;-59
2020/12/06 04:21:04;;;;;;;35.35;18.15;;;;;;;;;;5078240;28;20470;-59
2020/12/06 04:23:30;;;;;;;34.75;18.48;;;;;;;;;;5075614;28;20459;-59
2020/12/06 04:25:56;;;;;;;35.17;18.42;;;;;;;;;;5082781;28;20046;-59
2020/12/06 04:28:22;;;;;;;40.47;17.65;;;;;;;;;;5086322;28;20032;-59
2020/12/06 04:30:48;;;;;;;41.28;18.48;;;;;;;;;;5075528;28;20104;-59
2020/12/06 04:33:14;;;;;;;33.92;17.98;;;;;;;;;;5070413;28;20028;-59
2020/12/06 04:35:40;;;;;;;34.83;18.70;;;;;;;;;;5067160;28;20041;-58
2020/12/06 04:38:06;;;;;;;37.03;17.88;;;;;;;;;;5083845;28;20020;-59
2020/12/06 04:40:32;;;;;;;32.55;17.25;;;;;;;;;;5083672;28;20050;-59
2020/12/06 04:42:58;;;;;;;32.83;16.95;;;;;;;;;;5083924;28;20035;-59
2020/12/06 04:45:24;;;;;;;33.90;18.17;;;;;;;;;;5067055;28;20043;-59
2020/12/06 04:48:00;;;;;;;36.17;18.35;;;;;;;;;;5068595;28;20032;-59
2020/12/06 04:50:31;;;;;;;29.38;17.10;;;;;;;;;;5077473;28;20099;-59
2020/12/06 04:52:58;;;;;;;33.63;16.88;;;;;;;;;;5073607;28;20050;-58
2020/12/06 04:55:31;;;;;;;38.15;17.95;;;;;;;;;;5086375;28;20108;-59
2020/12/06 04:57:58;;;;;;;36.22;17.85;;;;;;;;;;5077267;28;20055;-59
2020/12/06 05:00:30;;;;;;;31.73;17.75;;;;;;;;;;5076195;28;20056;-59
2020/12/06 05:02:58;;;;;;;34.95;18.30;;;;;;;;;;5076837;28;20074;-59
2020/12/06 05:05:24;;;;;;;35.90;17.65;;;;;;;;;;5069215;28;20135;-59
2020/12/06 05:07:50;;;;;;;32.65;16.90;;;;;;;;;;5083547;28;20032;-58
2020/12/06 05:10:17;;;;;;;33.15;16.90;;;;;;;;;;5077314;28;20064;-59
2020/12/06 05:12:43;;;;;;;34.15;18.70;;;;;;;;;;5072541;28;20028;-59
2020/12/06 05:15:09;;;;;;;30.83;16.98;;;;;;;;;;5078397;28;20497;-58
2020/12/06 05:17:35;;;;;;;31.60;17.15;;;;;;;;;;5074085;28;20028;-59
2020/12/06 05:20:10;;;;;;;33.25;17.88;;;;;;;;;;5085345;28;20076;-60
2020/12/06 05:22:37;;;;;;;37.22;19.17;;;;;;;;;;5089645;28;20117;-59
2020/12/06 05:25:08;;;;;;;35.88;17.98;;;;;;;;;;5084947;28;20043;-59
2020/12/06 05:27:34;;;;;;;29.02;17.42;;;;;;;;;;5090960;28;20154;-59
2020/12/06 05:30:00;;;;;;;33.45;17.08;;;;;;;;;;5090815;28;20031;-59
2020/12/06 05:32:29;;;;;;;35.42;17.95;;;;;;;;;;5083154;28;20035;-59
2020/12/06 05:34:55;;;;;;;33.05;17.27;;;;;;;;;;5078987;28;20457;-59
2020/12/06 05:37:21;;;;;;;32.88;17.25;;;;;;;;;;5087827;28;20060;-58
2020/12/06 05:39:46;;;;;;;35.40;18.00;;;;;;;;;;5092000;28;20070;-60
2020/12/06 05:42:12;;;;;;;36.05;18.30;;;;;;;;;;5075661;28;20036;-59
2020/12/06 05:44:38;;;;;;;35.97;18.00;;;;;;;;;;5085317;28;20039;-59
2020/12/06 05:47:14;;;;;;;34.33;18.13;;;;;;;;;;5073581;28;20105;-59
2020/12/06 05:49:40;;;;;;;36.80;17.00;;;;;;;;;;5093621;28;20055;-59
2020/12/06 05:52:07;;;;;;;34.13;16.95;;;;;;;;;;5073436;28;20033;-59
2020/12/06 05:54:33;;;;;;;36.60;18.75;;;;;;;;;;5056926;28;20025;-59
2020/12/06 05:56:59;;;;;;;32.47;17.10;;;;;;;;;;5085586;28;20115;-59
2020/12/06 05:59:25;;;;;;;38.80;18.17;;;;;;;;;;5086374;28;20036;-59
2020/12/06 06:01:52;;;;;;;33.10;17.83;;;;;;;;;;5087594;28;20410;-59
2020/12/06 06:04:20;;;;;;;36.10;18.60;;;;;;;;;;5087015;28;20598;-59
2020/12/06 06:06:46;;;;;;;39.63;18.88;;;;;;;;;;5080848;28;20044;-59
2020/12/06 06:09:12;;;;;;;38.97;19.63;;;;;;;;;;5085496;28;20033;-59
2020/12/06 06:11:39;;;;;;;35.97;18.38;;;;;;;;;;5085222;28;20749;-59
2020/12/06 06:14:08;;;;;;;41.85;19.50;;;;;;;;;;5074914;28;20025;-58
2020/12/06 06:16:34;;;;;;;34.13;17.60;;;;;;;;;;5074798;28;20020;-57
2020/12/06 06:19:01;;;;;;;30.52;17.67;;;;;;;;;;5078161;28;20035;-58
2020/12/06 06:21:38;;;;;;;39.63;17.38;;;;;;;;;;5082215;28;20024;-59
2020/12/06 06:24:07;;;;;;;34.00;18.42;;;;;;;;;;5082045;28;20639;-59
2020/12/06 06:26:34;;;;;;;38.22;18.70;;;;;;;;;;5083522;28;20081;-59
2020/12/06 06:29:00;;;;;;;36.50;17.67;;;;;;;;;;5079152;28;20036;-59
2020/12/06 06:31:27;;;;;;;36.55;18.27;;;;;;;;;;5074218;28;20025;-59
2020/12/06 06:33:54;;;;;;;33.47;17.15;;;;;;;;;;5065881;28;20090;-59
2020/12/06 06:36:22;;;;;;;34.90;17.15;;;;;;;;;;5082730;28;20036;-60
2020/12/06 06:38:49;;;;;;;36.78;18.50;;;;;;;;;;5083608;28;20032;-59
2020/12/06 06:41:15;;;;;;;32.70;17.67;;;;;;;;;;5079186;28;20526;-59
2020/12/06 06:43:42;;;;;;;32.53;17.75;;;;;;;;;;5081994;28;20040;-58
2020/12/06 06:46:18;;;;;;;33.80;18.23;;;;;;;;;;5091181;28;20099;-59
2020/12/06 06:48:49;;;;;;;36.95;17.90;;;;;;;;;;5075647;28;20028;-59
2020/12/06 06:51:23;;;;;;;35.40;18.38;;;;;;;;;;5088017;28;20052;-59
2020/12/06 06:53:49;;;;;;;34.20;18.30;;;;;;;;;;5076656;28;20481;-59
2020/12/06 06:56:17;;;;;;;35.20;17.45;;;;;;;;;;5084934;28;20029;-59
2020/12/06 06:58:45;;;;;;;36.67;18.45;;;;;;;;;;5087011;28;20028;-59
2020/12/06 07:01:20;;;;;;;36.25;17.55;;;;;;;;;;5090028;28;20044;-59
2020/12/06 07:03:47;;;;;;;37.90;18.20;;;;;;;;;;5078639;28;20031;-59
2020/12/06 07:06:33;;;;;;;33.53;18.33;;;;;;;;;;5089112;28;20059;-59
2020/12/06 07:08:59;;;;;;;35.55;17.23;;;;;;;;;;5089555;28;20028;-59
2020/12/06 07:11:25;;;;;;;36.63;18.23;;;;;;;;;;5082951;28;20074;-59
2020/12/06 07:13:51;;;;;;;33.45;17.77;;;;;;;;;;5084223;28;20034;-60
2020/12/06 07:16:17;;;;;;;36.75;17.65;;;;;;;;;;5081773;28;20025;-59
2020/12/06 07:18:43;;;;;;;34.75;18.27;;;;;;;;;;5087647;28;20020;-59
2020/12/06 07:21:09;;;;;;;34.53;17.52;;;;;;;;;;5062042;28;20067;-59
2020/12/06 07:23:35;;;;;;;33.97;17.17;;;;;;;;;;5083636;28;20375;-57
2020/12/06 07:26:01;;;;;;;35.08;17.60;;;;;;;;;;5088311;28;20475;-59
2020/12/06 07:28:27;;;;;;;34.10;16.67;;;;;;;;;;5088129;28;20035;-59
2020/12/06 07:30:53;;;;;;;31.95;17.42;;;;;;;;;;5077911;28;20439;-59
2020/12/06 07:33:20;;;;;;;31.88;17.10;;;;;;;;;;5070755;28;20027;-59
2020/12/06 07:35:46;;;;;;;36.58;16.98;;;;;;;;;;5063039;28;20036;-59
2020/12/06 07:38:15;;;;;;;30.58;16.80;;;;;;;;;;5072001;28;20075;-59
2020/12/06 07:40:41;;;;;;;30.05;16.10;;;;;;;;;;5075631;28;20031;-59
2020/12/06 07:43:11;;;;;;;31.48;16.33;;;;;;;;;;5074703;28;20573;-59
2020/12/06 07:45:37;;;;;;;29.55;15.82;;;;;;;;;;5075045;28;20029;-59
2020/12/06 07:48:03;;;;;;;28.77;16.27;;;;;;;;;;5069338;28;20035;-59
2020/12/06 07:50:29;;;;;;;58.60;32.13;;;;;;;;;;5073607;28;20604;-59
2020/12/06 07:53:01;;;;;;;42.70;25.15;;;;;;;;;;5075902;28;20024;-60
2020/12/06 07:55:27;;;;;;;38.75;19.70;;;;;;;;;;5066166;28;20107;-59
2020/12/06 07:57:55;;;;;;;39.85;19.55;;;;;;;;;;5080760;28;20035;-59
2020/12/06 08:00:29;;;;;;;31.85;19.00;;;;;;;;;;5081162;28;20569;-59
2020/12/06 08:02:57;;;;;;;29.23;17.17;;;;;;;;;;5065126;28;20029;-59
2020/12/06 08:05:26;;;;;;;31.98;17.48;;;;;;;;;;5063402;28;20047;-58
2020/12/06 08:08:02;;;;;;;42.58;23.17;;;;;;;;;;5068371;28;20051;-59
2020/12/06 08:10:28;;;;;;;33.17;15.77;;;;;;;;;;5070177;28;20054;-59
2020/12/06 08:12:55;;;;;;;40.28;23.00;;;;;;;;;;5080018;28;20062;-59
2020/12/06 08:15:30;;;;;;;32.80;17.50;;;;;;;;;;5072113;28;20075;-60
2020/12/06 08:17:56;;;;;;;28.65;14.98;;;;;;;;;;5065957;28;20025;-60
2020/12/06 08:20:24;;;;;;;31.70;15.50;;;;;;;;;;5084401;28;20393;-59
2020/12/06 08:22:59;;;;;;;29.83;16.02;;;;;;;;;;5075226;28;20029;-59
2020/12/06 08:25:45;;;;;;;62.80;38.50;;;;;;;;;;5071136;28;20121;-58
2020/12/06 08:28:12;;;;;;;26.38;14.13;;;;;;;;;;5068340;28;20070;-60
2020/12/06 08:30:38;;;;;;;46.65;27.25;;;;;;;;;;5068622;28;20089;-59
2020/12/06 08:33:05;;;;;;;33.17;17.20;;;;;;;;;;5069747;28;20023;-59
2020/12/06 08:35:38;;;;;;;45.45;25.90;;;;;;;;;;5064507;28;20020;-60
2020/12/06 08:38:22;;;;;;;27.55;16.00;;;;;;;;;;5063924;28;20472;-60
2020/12/06 08:41:08;;;;;;;27.02;12.73;;;;;;;;;;5062738;28;20087;-60
2020/12/06 08:43:47;;;;;;;24.40;13.00;;;;;;;;;;5066713;28;20094;-59
2020/12/06 08:46:14;;;;;;;24.10;13.20;;;;;;;;;;5067571;28;20024;-60
2020/12/06 08:48:41;;;;;;;22.67;12.48;;;;;;;;;;5068569;28;20040;-60
2020/12/06 08:51:07;;;;;;;27.52;13.52;;;;;;;;;;5070020;28;20553;-60
2020/12/06 08:53:43;;;;;;;24.23;12.50;;;;;;;;;;5068086;28;20024;-60
2020/12/06 08:56:23;;;;;;;24.45;11.77;;;;;;;;;;5073100;28;20021;-60
2020/12/06 08:58:49;;;;;;;27.42;12.60;;;;;;;;;;5070224;28;20032;-60
2020/12/06 09:01:15;;;;;;;21.52;12.10;;;;;;;;;;5069378;28;20048;-60
2020/12/06 09:03:41;;;;;;;21.80;12.13;;;;;;;;;;5066515;28;20024;-60
2020/12/06 09:06:14;;;;;;;25.60;12.07;;;;;;;;;;5072560;28;20020;-60
2020/12/06 09:08:40;;;;;;;22.77;12.73;;;;;;;;;;5086914;28;20070;-60
2020/12/06 09:11:06;;;;;;;23.65;11.98;;;;;;;;;;5080214;28;20479;-60
2020/12/06 09:13:31;;;;;;;23.73;12.00;;;;;;;;;;5072006;28;20028;-60
2020/12/06 09:15:57;;;;;;;26.95;12.52;;;;;;;;;;5070345;28;20109;-60
2020/12/06 09:18:23;;;;;;;20.42;11.82;;;;;;;;;;5072114;28;20028;-60
2020/12/06 09:20:49;;;;;;;21.95;11.73;;;;;;;;;;5070935;28;20032;-59
2020/12/06 09:23:15;;;;;;;19.40;11.20;;;;;;;;;;5072982;28;20027;-60
2020/12/06 09:25:41;;;;;;;17.77;11.45;;;;;;;;;;5070337;28;20089;-60
2020/12/06 09:28:07;;;;;;;21.25;11.50;;;;;;;;;;5060494;28;20094;-59
2020/12/06 09:30:33;;;;;;;22.35;12.13;;;;;;;;;;5064775;28;20032;-60
2020/12/06 09:32:59;;;;;;;21.30;12.27;;;;;;;;;;5069461;28;20044;-59
2020/12/06 09:35:25;;;;;;;22.92;12.90;;;;;;;;;;5069946;28;20024;-60
2020/12/06 09:37:51;;;;;;;24.35;11.75;;;;;;;;;;5072454;28;20158;-60
2020/12/06 09:40:17;;;;;;;20.80;11.50;;;;;;;;;;5063704;28;20083;-60
2020/12/06 09:42:43;;;;;;;19.83;11.00;;;;;;;;;;5072321;28;20025;-58
2020/12/06 09:45:09;;;;;;;19.73;11.60;;;;;;;;;;5056391;28;20021;-60
2020/12/06 09:47:35;;;;;;;21.02;10.95;;;;;;;;;;5064315;28;20028;-60
2020/12/06 09:50:00;;;;;;;22.30;10.60;;;;;;;;;;5063431;28;20025;-60
2020/12/06 09:52:26;;;;;;;21.85;11.38;;;;;;;;;;5070935;28;20037;-60
2020/12/06 09:54:52;;;;;;;25.83;11.93;;;;;;;;;;5058744;28;20020;-61
2020/12/06 09:57:18;;;;;;;21.52;11.05;;;;;;;;;;5062358;28;20036;-61
2020/12/06 09:59:44;;;;;;;24.98;12.20;;;;;;;;;;5075369;28;20052;-61
2020/12/06 10:02:10;;;;;;;23.75;12.70;;;;;;;;;;5068249;28;20033;-60
2020/12/06 10:04:36;;;;;;;28.15;13.50;;;;;;;;;;5069006;28;20054;-61
2020/12/06 10:07:02;;;;;;;20.10;9.95;;;;;;;;;;5071269;28;20583;-61
2020/12/06 10:09:29;;;;;;;22.20;11.15;;;;;;;;;;5071215;28;20027;-57
2020/12/06 10:11:55;;;;;;;16.88;10.15;;;;;;;;;;5068951;28;20062;-61
2020/12/06 10:14:21;;;;;;;18.73;10.15;;;;;;;;;;5061403;28;20035;-61
2020/12/06 10:16:48;;;;;;;16.50;8.85;;;;;;;;;;5066594;28;20031;-61
2020/12/06 10:19:14;;;;;;;19.00;9.30;;;;;;;;;;5064992;28;20045;-61
2020/12/06 10:21:40;;;;;;;17.58;9.48;;;;;;;;;;5062939;28;21157;-61
2020/12/06 10:24:06;;;;;;;21.20;9.82;;;;;;;;;;5069044;28;20086;-61
2020/12/06 10:26:32;;;;;;;17.67;9.85;;;;;;;;;;5065608;28;20028;-61
2020/12/06 10:28:59;;;;;;;18.17;10.38;;;;;;;;;;5069621;28;20500;-61
2020/12/06 10:31:25;;;;;;;19.00;9.90;;;;;;;;;;5062842;28;20036;-61
2020/12/06 10:33:51;;;;;;;16.02;9.90;;;;;;;;;;5058162;28;20024;-61
2020/12/06 10:36:17;;;;;;;16.98;10.25;;;;;;;;;;5060568;28;20063;-61
2020/12/06 10:38:43;;;;;;;16.15;9.48;;;;;;;;;;5059543;28;20484;-61
2020/12/06 10:41:12;;;;;;;15.75;9.52;;;;;;;;;;5076384;28;20039;-61
2020/12/06 10:43:38;;;;;;;19.27;9.77;;;;;;;;;;5065688;28;20023;-61
2020/12/06 10:46:04;;;;;;;17.08;9.45;;;;;;;;;;5070562;28;20387;-61
2020/12/06 10:48:30;;;;;;;16.52;8.90;;;;;;;;;;5065901;28;20033;-61
2020/12/06 10:50:56;;;;;;;21.05;10.32;;;;;;;;;;5068220;28;20089;-61
2020/12/06 10:53:22;;;;;;;17.45;8.95;;;;;;;;;;5067299;28;20086;-61
2020/12/06 10:55:48;;;;;;;21.30;10.00;;;;;;;;;;5069394;28;20028;-61
2020/12/06 10:58:14;;;;;;;18.45;8.75;;;;;;;;;;5063378;28;20089;-61
2020/12/06 11:00:39;;;;;;;15.27;8.10;;;;;;;;;;5066242;28;20162;-62
2020/12/06 11:03:05;;;;;;;16.08;9.60;;;;;;;;;;5070178;28;20032;-61
2020/12/06 11:05:31;;;;;;;16.27;8.70;;;;;;;;;;5068213;28;20051;-62
2020/12/06 11:07:57;;;;;;;16.45;9.25;;;;;;;;;;5066219;28;20040;-62
2020/12/06 11:10:23;;;;;;;14.13;7.88;;;;;;;;;;5060934;28;20021;-62
2020/12/06 11:12:49;;;;;;;16.05;8.52;;;;;;;;;;5060418;28;20021;-62
2020/12/06 11:15:16;;;;;;;15.63;8.35;;;;;;;;;;5070422;28;20028;-62
2020/12/06 11:17:42;;;;;;;14.65;7.80;;;;;;;;;;5070810;28;20605;-62
2020/12/06 11:20:08;;;;;;;16.20;8.52;;;;;;;;;;5067628;28;20051;-62
2020/12/06 11:22:34;;;;;;;15.27;7.97;;;;;;;;;;5066395;28;20025;-62
2020/12/06 11:25:00;;;;;;;14.25;8.27;;;;;;;;;;5067377;28;20463;-62
2020/12/06 11:27:26;;;;;;;11.98;8.23;;;;;;;;;;5068841;28;20087;-62
2020/12/06 11:29:53;;;;;;;15.32;7.90;;;;;;;;;;5081742;28;20043;-62
2020/12/06 11:32:22;;;;;;;12.82;8.50;;;;;;;;;;5060539;28;20518;-62
2020/12/06 11:34:49;;;;;;;14.05;7.90;;;;;;;;;;5069054;28;20020;-62
2020/12/06 11:37:15;;;;;;;12.63;8.48;;;;;;;;;;5068720;28;20559;-62
2020/12/06 11:39:41;;;;;;;13.32;7.22;;;;;;;;;;5063394;28;20029;-62
2020/12/06 11:42:06;;;;;;;13.25;8.00;;;;;;;;;;5055791;28;20525;-62
2020/12/06 11:44:33;;;;;;;15.05;8.95;;;;;;;;;;5067641;28;20450;-62
2020/12/06 11:46:59;;;;;;;15.70;8.80;;;;;;;;;;5069985;28;20068;-62
2020/12/06 11:49:25;;;;;;;12.43;7.82;;;;;;;;;;5069641;28;20058;-62
2020/12/06 11:51:54;;;;;;;13.30;7.40;;;;;;;;;;5060842;28;20024;-62
2020/12/06 11:54:20;;;;;;;14.65;8.43;;;;;;;;;;5065953;28;20090;-62
2020/12/06 11:56:48;;;;;;;17.13;9.23;;;;;;;;;;5070123;28;20032;-62
2020/12/06 11:59:14;;;;;;;16.30;8.38;;;;;;;;;;5061894;28;20108;-62
2020/12/06 12:01:40;;;;;;;14.60;8.25;;;;;;;;;;5060772;28;20055;-62
2020/12/06 12:04:06;;;;;;;14.30;7.63;;;;;;;;;;5072181;28;20110;-62
2020/12/06 12:06:32;;;;;;;14.38;8.27;;;;;;;;;;5058394;28;20539;-62
2020/12/06 12:08:58;;;;;;;13.77;8.52;;;;;;;;;;5069034;28;20055;-62
2020/12/06 12:11:24;;;;;;;15.05;8.23;;;;;;;;;;5066161;28;20025;-62
2020/12/06 12:13:50;;;;;;;18.55;8.35;;;;;;;;;;5070545;28;20611;-62
2020/12/06 12:16:16;;;;;;;13.40;8.65;;;;;;;;;;5061436;28;20493;-62
2020/12/06 12:18:42;;;;;;;16.58;8.57;;;;;;;;;;5062811;28;20044;-62
2020/12/06 12:21:08;;;;;;;15.25;8.30;;;;;;;;;;5055754;28;20036;-62
2020/12/06 12:23:34;;;;;;;13.07;7.78;;;;;;;;;;5061705;28;20032;-62
2020/12/06 12:25:59;;;;;;;14.55;8.40;;;;;;;;;;5065527;28;20028;-62
2020/12/06 12:28:25;;;;;;;17.30;8.77;;;;;;;;;;5063101;28;20819;-62
2020/12/06 12:30:52;;;;;;;12.48;8.00;;;;;;;;;;5064261;28;20036;-62
2020/12/06 12:33:17;;;;;;;15.55;9.23;;;;;;;;;;5067031;28;20039;-62
2020/12/06 12:35:44;;;;;;;13.95;8.25;;;;;;;;;;5066602;28;20017;-62
2020/12/06 12:38:10;;;;;;;14.18;7.38;;;;;;;;;;5065200;28;20030;-62
2020/12/06 12:40:36;;;;;;;17.95;8.90;;;;;;;;;;5060698;28;20028;-68
2020/12/06 12:43:03;;;;;;;12.95;7.78;;;;;;;;;;5063570;28;20028;-62
2020/12/06 12:45:29;;;;;;;16.10;7.88;;;;;;;;;;5062136;28;20081;-62
2020/12/06 12:47:55;;;;;;;16.10;8.63;;;;;;;;;;5057060;28;20063;-62
2020/12/06 12:50:22;;;;;;;14.13;7.60;;;;;;;;;;5065135;28;20024;-62
2020/12/06 12:52:49;;;;;;;12.90;7.95;;;;;;;;;;5068370;28;20028;-62
2020/12/06 12:55:15;;;;;;;14.75;8.43;;;;;;;;;;5069704;28;20028;-62
2020/12/06 12:57:42;;;;;;;16.33;8.07;;;;;;;;;;5067826;28;20028;-62
2020/12/06 13:00:08;;;;;;;12.52;7.97;;;;;;;;;;5070918;28;20040;-62
2020/12/06 13:02:34;;;;;;;15.93;8.05;;;;;;;;;;5063739;28;20024;-62
2020/12/06 13:05:01;;;;;;;14.80;8.07;;;;;;;;;;5068050;28;20028;-62
2020/12/06 13:07:27;;;;;;;13.25;7.97;;;;;;;;;;5062989;28;20064;-62
2020/12/06 13:09:53;;;;;;;15.23;7.93;;;;;;;;;;5062907;28;20059;-62
2020/12/06 13:12:19;;;;;;;14.23;8.27;;;;;;;;;;5062043;28;20028;-62
2020/12/06 13:14:47;;;;;;;13.27;7.60;;;;;;;;;;5064719;28;20775;-62
2020/12/06 13:17:13;;;;;;;16.40;8.15;;;;;;;;;;5062629;28;20544;-62
2020/12/06 13:19:39;;;;;;;16.20;8.73;;;;;;;;;;5066246;28;20131;-62
2020/12/06 13:22:06;;;;;;;17.20;8.48;;;;;;;;;;5064477;28;20036;-62
2020/12/06 13:24:32;;;;;;;13.98;7.95;;;;;;;;;;5069271;28;20125;-61
2020/12/06 13:26:58;;;;;;;16.73;9.23;;;;;;;;;;5066555;28;20703;-62
2020/12/06 13:29:24;;;;;;;14.32;8.35;;;;;;;;;;5063790;28;20510;-61
2020/12/06 13:31:51;;;;;;;15.25;8.80;;;;;;;;;;5064527;28;20439;-61
2020/12/06 13:34:18;;;;;;;15.93;8.30;;;;;;;;;;5072654;28;20126;-62
2020/12/06 13:36:44;;;;;;;14.75;10.13;;;;;;;;;;5066790;28;20461;-62
2020/12/06 13:39:10;;;;;;;15.98;10.25;;;;;;;;;;5065074;28;20040;-62
2020/12/06 13:41:36;;;;;;;17.40;11.43;;;;;;;;;;5065092;28;20527;-61
2020/12/06 13:44:02;;;;;;;13.18;7.88;;;;;;;;;;5067431;28;20040;-62
2020/12/06 13:46:28;;;;;;;16.85;9.77;;;;;;;;;;5069696;28;20036;-61
2020/12/06 13:48:54;;;;;;;13.82;8.45;;;;;;;;;;5067522;28;20546;-62
2020/12/06 13:51:21;;;;;;;17.42;10.15;;;;;;;;;;5074182;28;20028;-62
2020/12/06 13:53:47;;;;;;;15.65;8.90;;;;;;;;;;5068337;28;20089;-62
2020/12/06 13:56:13;;;;;;;13.13;8.45;;;;;;;;;;5059511;28;20043;-62
2020/12/06 13:58:39;;;;;;;16.50;8.18;;;;;;;;;;5066094;28;20404;-61
2020/12/06 14:01:05;;;;;;;16.15;8.30;;;;;;;;;;5062894;28;20132;-62
2020/12/06 14:03:31;;;;;;;14.57;8.90;;;;;;;;;;5072188;28;20029;-62
2020/12/06 14:05:57;;;;;;;15.00;8.50;;;;;;;;;;5064896;28;20029;-62
2020/12/06 14:08:23;;;;;;;14.63;7.97;;;;;;;;;;5061119;28;20499;-62
2020/12/06 14:10:49;;;;;;;12.05;7.60;;;;;;;;;;5065953;28;20027;-62
2020/12/06 14:13:15;;;;;;;16.30;7.65;;;;;;;;;;5070214;28;20029;-62
2020/12/06 14:15:41;;;;;;;14.05;7.68;;;;;;;;;;5066941;28;20028;-62
2020/12/06 14:18:07;;;;;;;13.40;7.82;;;;;;;;;;5077616;28;20020;-63